createdAt,value
2018-02-19T00:46:14.746Z,46.80
2018-02-19T00:49:07.761Z,55.13
2018-02-19T00:51:45.519Z,46.47
2018-02-19T00:54:33.166Z,42.67
2018-02-19T01:00:01.253Z,47.20
2018-02-19T01:02:46.932Z,50.90
2018-02-19T01:05:40.328Z,45.80
2018-02-19T01:08:16.691Z,48.63
2018-02-19T01:10:53.839Z,47.77
2018-02-19T01:13:32.955Z,46.60
2018-02-19T01:16:18.629Z,47.80
2018-02-19T01:18:59.275Z,48.63
2018-02-19T01:24:51.147Z,50.05
2018-02-19T01:27:37.099Z,43.67
2018-02-19T01:30:16.830Z,43.73
2018-02-19T01:32:59.738Z,59.20
2018-02-19T01:35:48.558Z,41.57
2018-02-19T01:39:32.118Z,55.80
2018-02-19T01:42:10.221Z,60.37
2018-02-19T01:44:52.007Z,51.30
2018-02-19T01:47:37.435Z,48.83
2018-02-19T01:50:29.505Z,48.27
2018-02-19T01:53:15.546Z,53.63
2018-02-19T01:56:00.815Z,52.30
2018-02-19T01:58:38.344Z,51.10
2018-02-19T02:01:18.439Z,59.60
2018-02-19T02:03:57.212Z,58.73
2018-02-19T02:06:35.351Z,48.67
2018-02-19T02:09:13.484Z,50.33
2018-02-19T02:11:54.317Z,57.70
2018-02-19T02:14:27.963Z,55.33
2018-02-19T02:17:12.458Z,54.93
2018-02-19T02:19:55.977Z,56.87
2018-02-19T02:22:34.754Z,56.27
2018-02-19T02:25:14.576Z,54.03
2018-02-19T02:27:54.734Z,54.83
2018-02-19T02:30:37.894Z,49.87
2018-02-19T02:33:23.554Z,59.20
2018-02-19T02:36:21.507Z,55.73
2018-02-19T02:39:07.633Z,48.20
2018-02-19T02:41:46.746Z,57.53
2018-02-19T02:44:28.923Z,58.30
2018-02-19T02:47:05.368Z,58.17
2018-02-19T02:49:42.258Z,54.03
2018-02-19T02:52:25.433Z,57.27
2018-02-19T02:55:09.663Z,55.40
2018-02-19T02:57:44.965Z,53.70
2018-02-19T03:00:51.933Z,58.70
2018-02-19T03:03:31.869Z,61.93
2018-02-19T03:06:09.551Z,60.60
2018-02-19T03:08:50.485Z,55.33
2018-02-19T03:11:23.981Z,55.90
2018-02-19T03:14:02.329Z,70.87
2018-02-19T03:16:46.469Z,58.73
2018-02-19T03:19:23.919Z,55.13
2018-02-19T03:22:16.118Z,58.10
2018-02-19T03:24:52.105Z,65.80
2018-02-19T03:27:36.110Z,69.27
2018-02-19T03:30:28.406Z,59.07
2018-02-19T03:33:06.687Z,59.00
2018-02-19T03:35:52.988Z,73.87
2018-02-19T03:38:38.749Z,57.00
2018-02-19T03:41:24.310Z,61.92
2018-02-19T03:46:53.624Z,69.57
2018-02-19T03:49:27.478Z,60.97
2018-02-19T03:52:21.090Z,65.13
2018-02-19T03:57:42.084Z,70.43
2018-02-19T04:00:29.476Z,64.30
2018-02-19T04:03:12.908Z,61.70
2018-02-19T04:06:04.089Z,66.50
2018-02-19T04:08:45.908Z,65.27
2018-02-19T04:11:33.273Z,79.00
2018-02-19T04:14:16.299Z,66.53
2018-02-19T04:16:52.274Z,65.27
2018-02-19T04:19:33.452Z,59.10
2018-02-19T04:22:07.624Z,63.77
2018-02-19T04:24:53.711Z,64.57
2018-02-19T04:27:49.981Z,64.13
2018-02-19T04:30:44.335Z,64.63
2018-02-19T04:33:26.988Z,63.30
2018-02-19T04:36:12.824Z,70.40
2018-02-19T04:38:51.976Z,67.50
2018-02-19T04:41:27.514Z,67.20
2018-02-19T04:44:22.582Z,59.40
2018-02-19T04:47:01.965Z,60.47
2018-02-19T04:49:39.290Z,56.23
2018-02-19T04:52:14.144Z,60.60
2018-02-19T04:54:50.985Z,57.00
2018-02-19T04:57:30.615Z,57.80
2018-02-19T05:00:15.585Z,59.30
2018-02-19T05:02:50.686Z,58.30
2018-02-19T05:05:43.448Z,54.13
2018-02-19T05:08:28.287Z,57.77
2018-02-19T05:11:08.747Z,64.13
2018-02-19T05:14:02.400Z,57.50
2018-02-19T05:16:59.243Z,56.10
2018-02-19T05:19:37.878Z,61.57
2018-02-19T05:22:27.372Z,56.40
2018-02-19T05:25:12.624Z,60.83
2018-02-19T05:52:10.533Z,56.80
2018-02-19T05:54:54.194Z,61.37
2018-02-19T06:12:00.186Z,54.92
2018-02-19T06:20:59.484Z,55.27
2018-02-19T06:23:46.641Z,59.30
2018-02-19T06:41:58.581Z,53.00
2018-02-19T06:44:47.752Z,53.77
2018-02-19T06:47:30.626Z,47.13
2018-02-19T06:53:40.257Z,51.67
2018-02-19T06:56:30.753Z,54.90
2018-02-19T06:59:29.606Z,50.67
2018-02-19T07:02:10.933Z,62.23
2018-02-19T07:05:15.614Z,52.43
2018-02-19T07:07:52.332Z,52.53
2018-02-19T07:10:47.995Z,47.60
2018-02-19T07:13:30.736Z,47.50
2018-02-19T07:16:18.830Z,57.05
2018-02-19T07:19:00.375Z,46.80
2018-02-19T07:21:41.731Z,53.00
2018-02-19T07:24:36.514Z,40.70
2018-02-19T07:27:22.878Z,42.60
2018-02-19T07:32:12.277Z,43.33
2018-02-19T07:35:02.167Z,42.57
2018-02-19T07:40:36.701Z,44.33
2018-02-19T07:43:33.939Z,49.27
2018-02-19T07:46:20.940Z,43.87
2018-02-19T07:49:07.827Z,44.67
2018-02-19T07:51:47.864Z,43.63
2018-02-19T07:54:34.099Z,44.37
2018-02-19T08:01:07.964Z,60.60
2018-02-19T08:06:39.736Z,45.27
2018-02-19T08:09:26.022Z,42.03
2018-02-19T08:12:13.964Z,42.33
2018-02-19T08:15:18.893Z,35.83
2018-02-19T08:18:03.040Z,48.50
2018-02-19T08:20:49.052Z,51.00
2018-02-19T08:34:03.094Z,45.20
2018-02-19T08:38:50.573Z,41.33
2018-02-19T08:41:49.325Z,42.33
2018-02-19T08:44:28.486Z,37.00
2018-02-19T08:47:20.462Z,45.50
2018-02-19T08:50:04.416Z,39.90
2018-02-19T08:53:15.576Z,43.53
2018-02-19T08:56:00.838Z,45.00
2018-02-19T08:58:39.535Z,49.60
2018-02-19T09:01:18.732Z,41.63
2018-02-19T09:04:00.336Z,43.93
2018-02-19T09:09:36.699Z,41.03
2018-02-19T09:12:26.775Z,42.40
2018-02-19T09:15:40.665Z,40.37
2018-02-19T09:18:20.332Z,40.37
2018-02-19T09:21:09.393Z,37.90
2018-02-19T09:23:58.000Z,41.50
2018-02-19T09:26:51.608Z,39.73
2018-02-19T09:42:15.102Z,39.38
2018-02-19T09:45:07.583Z,44.80
2018-02-19T09:47:48.453Z,41.70
2018-02-19T09:50:35.740Z,40.90
2018-02-19T09:53:16.245Z,37.40
2018-02-19T10:24:25.636Z,40.60
2018-02-19T10:37:08.736Z,44.50
2018-02-19T10:39:53.376Z,42.23
2018-02-19T10:45:47.769Z,41.90
2018-02-19T10:48:33.893Z,43.73
2018-02-19T10:51:34.911Z,35.90
2018-02-19T10:54:14.951Z,40.87
2018-02-19T10:57:08.716Z,36.67
2018-02-19T10:59:52.593Z,38.67
2018-02-19T11:02:34.021Z,36.07
2018-02-19T11:05:20.887Z,40.77
2018-02-19T11:08:01.169Z,37.53
2018-02-19T11:10:48.632Z,36.13
2018-02-19T11:13:37.663Z,40.80
2018-02-19T11:16:30.330Z,51.10
2018-02-19T11:19:22.564Z,43.07
2018-02-19T11:22:10.210Z,35.47
2018-02-19T11:25:05.215Z,41.43
2018-02-19T11:27:48.969Z,37.10
2018-02-19T11:30:43.504Z,37.40
2018-02-19T11:40:40.239Z,41.70
2018-02-19T11:43:32.566Z,43.33
2018-02-19T11:46:14.953Z,41.17
2018-02-19T11:55:27.770Z,36.30
2018-02-19T12:10:59.351Z,41.93
2018-02-19T12:20:02.841Z,34.30
2018-02-19T12:32:13.009Z,34.93
2018-02-19T12:45:46.913Z,58.93
2018-02-19T12:57:22.448Z,49.20
2018-02-19T13:05:59.581Z,43.57
2018-02-19T13:09:00.219Z,40.90
2018-02-19T13:12:18.923Z,36.90
2018-02-19T13:15:26.882Z,38.57
2018-02-19T13:21:06.339Z,42.37
2018-02-19T15:05:33.337Z,35.73
